createdAt,value
2023-12-09T00:02:07.899Z,55.85
2023-12-09T00:04:34.346Z,55.68
2023-12-09T00:07:00.946Z,55.38
2023-12-09T00:09:27.404Z,55.94
2023-12-09T00:11:53.802Z,56.81
2023-12-09T00:14:21.386Z,58.49
2023-12-09T00:16:47.737Z,57.91
2023-12-09T00:19:14.443Z,57.04
2023-12-09T00:21:40.952Z,57.40
2023-12-09T00:24:07.313Z,57.16
2023-12-09T00:26:33.680Z,58.04
2023-12-09T00:29:00.124Z,58.93
2023-12-09T00:31:26.574Z,57.92
2023-12-09T00:33:53.372Z,58.35
2023-12-09T00:36:19.918Z,56.77
2023-12-09T00:38:46.583Z,56.16
2023-12-09T00:41:13.069Z,56.99
2023-12-09T00:43:39.403Z,56.88
2023-12-09T00:46:06.051Z,56.06
2023-12-09T00:48:32.586Z,56.98
2023-12-09T00:50:59.021Z,55.93
2023-12-09T00:53:25.389Z,55.39
2023-12-09T00:55:51.724Z,56.35
2023-12-09T00:58:18.090Z,59.19
2023-12-09T01:00:44.536Z,59.07
2023-12-09T01:03:10.950Z,59.90
2023-12-09T01:05:37.306Z,58.69
2023-12-09T01:08:03.644Z,58.69
2023-12-09T01:10:30.042Z,58.25
2023-12-09T01:12:56.390Z,59.73
2023-12-09T01:15:23.016Z,60.56
2023-12-09T01:17:49.423Z,59.44
2023-12-09T01:20:15.827Z,59.33
2023-12-09T01:22:42.180Z,57.59
2023-12-09T01:25:08.775Z,58.89
2023-12-09T01:27:35.165Z,58.88
2023-12-09T01:30:01.658Z,57.83
2023-12-09T01:32:28.323Z,57.00
2023-12-09T01:34:54.899Z,56.08
2023-12-09T01:37:21.245Z,55.45
2023-12-09T01:39:47.586Z,55.69
2023-12-09T01:42:13.989Z,55.93
2023-12-09T01:44:40.342Z,57.59
2023-12-09T01:47:07.268Z,56.79
2023-12-09T01:49:33.715Z,56.13
2023-12-09T01:52:00.694Z,55.28
2023-12-09T01:54:27.145Z,55.18
2023-12-09T01:56:53.774Z,54.60
2023-12-09T01:59:20.136Z,55.45
2023-12-09T02:01:46.505Z,55.13
2023-12-09T02:04:13.771Z,56.45
2023-12-09T02:06:41.173Z,56.32
2023-12-09T02:09:07.595Z,55.73
2023-12-09T02:11:34.095Z,54.86
2023-12-09T02:14:08.442Z,55.09
2023-12-09T02:16:37.521Z,54.76
2023-12-09T02:19:04.066Z,55.29
2023-12-09T02:21:30.639Z,56.89
2023-12-09T02:23:57.052Z,58.67
2023-12-09T02:26:24.440Z,61.39
2023-12-09T02:28:52.437Z,61.50
2023-12-09T02:31:22.221Z,60.44
2023-12-09T02:33:48.694Z,60.17
2023-12-09T02:36:16.938Z,59.96
2023-12-09T02:38:43.274Z,59.49
2023-12-09T02:41:09.603Z,58.34
2023-12-09T02:43:36.356Z,58.15
2023-12-09T02:46:02.709Z,57.60
2023-12-09T02:48:29.171Z,56.80
2023-12-09T02:50:56.400Z,56.08
2023-12-09T02:53:22.774Z,55.65
2023-12-09T02:55:49.158Z,54.96
2023-12-09T02:58:16.515Z,56.97
2023-12-09T03:00:43.900Z,57.09
2023-12-09T03:03:10.341Z,57.79
2023-12-09T03:05:36.722Z,58.73
2023-12-09T03:08:03.126Z,58.53
2023-12-09T03:10:29.517Z,58.71
2023-12-09T03:12:55.849Z,58.75
2023-12-09T03:15:22.242Z,58.33
2023-12-09T03:17:48.778Z,57.74
2023-12-09T03:20:15.426Z,57.83
2023-12-09T03:22:41.770Z,56.47
2023-12-09T03:25:08.311Z,55.55
2023-12-09T03:27:34.756Z,55.22
2023-12-09T03:30:01.114Z,54.99
2023-12-09T03:32:27.786Z,55.57
2023-12-09T03:34:54.295Z,55.91
2023-12-09T03:37:20.651Z,55.63
2023-12-09T03:39:46.982Z,55.54
2023-12-09T03:42:13.352Z,55.08
2023-12-09T03:44:39.711Z,53.99
2023-12-09T03:47:12.037Z,54.56
2023-12-09T03:49:45.289Z,56.20
2023-12-09T03:52:11.774Z,57.05
2023-12-09T03:54:38.652Z,56.18
2023-12-09T03:57:05.178Z,57.87
2023-12-09T03:59:31.517Z,56.60
2023-12-09T04:02:00.623Z,55.70
2023-12-09T04:04:27.236Z,55.44
2023-12-09T04:06:53.611Z,54.87
2023-12-09T04:09:19.965Z,54.52
2023-12-09T04:11:46.346Z,53.94
2023-12-09T04:14:12.679Z,54.24
2023-12-09T04:16:39.040Z,55.06
2023-12-09T04:19:07.243Z,54.20
2023-12-09T04:21:34.900Z,53.96
2023-12-09T04:24:01.351Z,54.24
2023-12-09T04:26:27.679Z,53.58
2023-12-09T04:28:54.089Z,53.71
2023-12-09T04:31:20.424Z,53.61
2023-12-09T04:33:46.849Z,53.76
2023-12-09T04:36:13.257Z,54.99
2023-12-09T04:38:39.618Z,57.37
2023-12-09T04:41:06.015Z,58.96
2023-12-09T04:43:32.336Z,59.13
2023-12-09T04:45:58.677Z,56.92
2023-12-09T04:48:26.391Z,56.50
2023-12-09T04:50:52.867Z,54.93
2023-12-09T04:53:19.213Z,55.97
2023-12-09T04:55:45.598Z,56.59
2023-12-09T04:58:11.958Z,54.96
2023-12-09T05:00:38.550Z,55.34
2023-12-09T05:03:05.115Z,54.89
2023-12-09T05:05:31.565Z,55.71
2023-12-09T05:07:57.913Z,55.24
2023-12-09T05:10:24.250Z,55.49
2023-12-09T05:12:50.576Z,55.05
2023-12-09T05:15:17.189Z,54.40
2023-12-09T05:17:43.636Z,54.95
2023-12-09T05:20:11.109Z,54.52
2023-12-09T05:22:38.146Z,53.83
2023-12-09T05:25:04.894Z,54.01
2023-12-09T05:27:31.324Z,54.70
2023-12-09T05:29:57.800Z,54.16
2023-12-09T05:32:24.315Z,54.73
2023-12-09T05:34:50.853Z,53.97
2023-12-09T05:37:17.207Z,53.24
2023-12-09T05:39:43.544Z,53.87
2023-12-09T05:42:10.034Z,53.73
2023-12-09T05:44:36.414Z,54.27
2023-12-09T05:47:03.749Z,54.27
2023-12-09T05:49:30.334Z,54.41
2023-12-09T05:51:56.749Z,53.36
2023-12-09T05:54:23.109Z,53.73
2023-12-09T05:56:52.172Z,52.77
2023-12-09T05:59:18.551Z,53.12
2023-12-09T06:01:44.916Z,53.51
2023-12-09T06:04:11.304Z,54.46
2023-12-09T06:06:37.734Z,53.97
2023-12-09T06:09:04.161Z,53.18
2023-12-09T06:11:30.515Z,53.51
2023-12-09T06:13:56.881Z,54.55
2023-12-09T06:16:23.218Z,54.25
2023-12-09T06:18:49.718Z,54.59
2023-12-09T06:21:22.887Z,54.97
2023-12-09T06:23:49.342Z,53.76
2023-12-09T06:26:15.704Z,53.30
2023-12-09T06:28:42.060Z,53.34
2023-12-09T06:31:08.480Z,52.75
2023-12-09T06:33:35.000Z,52.97
2023-12-09T06:36:01.451Z,53.11
2023-12-09T06:38:28.321Z,52.66
2023-12-09T06:40:54.652Z,53.57
2023-12-09T06:43:21.004Z,54.41
2023-12-09T06:45:47.703Z,54.50
2023-12-09T06:48:14.270Z,54.21
2023-12-09T06:50:40.709Z,53.58
2023-12-09T06:53:07.745Z,55.25
2023-12-09T06:55:34.131Z,57.02
2023-12-09T06:58:00.491Z,57.76
2023-12-09T07:00:26.879Z,56.08
2023-12-09T07:02:59.175Z,55.41
2023-12-09T07:05:27.525Z,54.20
2023-12-09T07:07:54.150Z,53.62
2023-12-09T07:10:20.839Z,53.37
2023-12-09T07:12:47.265Z,52.96
2023-12-09T07:15:13.867Z,54.06
2023-12-09T07:17:40.436Z,54.31
2023-12-09T07:20:07.459Z,53.92
2023-12-09T07:22:33.977Z,53.89
2023-12-09T07:25:00.362Z,54.26
2023-12-09T07:27:26.742Z,53.83
2023-12-09T07:29:53.102Z,53.61
2023-12-09T07:32:19.574Z,53.18
2023-12-09T07:34:46.066Z,53.06
2023-12-09T07:37:15.806Z,53.97
2023-12-09T07:39:42.251Z,54.13
2023-12-09T07:42:09.001Z,55.16
2023-12-09T07:44:35.461Z,53.37
2023-12-09T07:47:01.827Z,52.91
2023-12-09T07:49:29.106Z,52.47
2023-12-09T07:51:55.644Z,52.90
2023-12-09T07:54:22.052Z,55.28
2023-12-09T07:56:48.458Z,57.92
2023-12-09T07:59:14.784Z,57.60
2023-12-09T08:01:41.918Z,56.61
2023-12-09T08:04:08.436Z,55.09
2023-12-09T08:06:35.033Z,54.00
2023-12-09T08:09:01.451Z,53.56
2023-12-09T08:11:27.804Z,52.36
2023-12-09T08:13:54.177Z,51.91
2023-12-09T08:16:20.573Z,51.30
2023-12-09T08:18:49.570Z,51.11
2023-12-09T08:21:16.145Z,52.11
2023-12-09T08:23:42.592Z,53.89
2023-12-09T08:26:08.922Z,53.02
2023-12-09T08:28:35.335Z,52.34
2023-12-09T08:31:02.139Z,51.48
2023-12-09T08:33:28.574Z,51.12
2023-12-09T08:35:55.081Z,50.62
2023-12-09T08:38:21.531Z,50.78
2023-12-09T08:40:48.116Z,50.91
2023-12-09T08:43:14.458Z,50.48
2023-12-09T08:45:41.017Z,52.26
2023-12-09T08:48:08.078Z,53.45
2023-12-09T08:50:34.594Z,53.56
2023-12-09T08:53:01.091Z,52.88
2023-12-09T08:55:27.436Z,53.13
2023-12-09T08:57:54.039Z,52.28
2023-12-09T09:00:22.261Z,51.30
2023-12-09T09:02:49.252Z,51.17
2023-12-09T09:05:15.895Z,50.23
2023-12-09T09:07:44.422Z,50.35
2023-12-09T09:10:10.857Z,51.08
2023-12-09T09:12:37.293Z,51.02
2023-12-09T09:15:07.113Z,51.56
2023-12-09T09:17:36.158Z,51.33
2023-12-09T09:20:02.896Z,50.88
2023-12-09T09:22:30.009Z,51.55
2023-12-09T09:24:56.752Z,51.39
2023-12-09T09:27:23.153Z,51.39
2023-12-09T09:29:49.497Z,50.72
2023-12-09T09:32:17.172Z,50.43
2023-12-09T09:34:44.172Z,50.42
2023-12-09T09:37:10.813Z,50.60
2023-12-09T09:39:37.794Z,50.51
2023-12-09T09:42:04.160Z,50.41
2023-12-09T09:44:30.553Z,50.52
2023-12-09T09:46:57.392Z,51.01
2023-12-09T09:49:24.732Z,51.55
2023-12-09T09:51:52.970Z,50.68
2023-12-09T09:54:25.222Z,50.66
2023-12-09T09:56:51.683Z,50.69
2023-12-09T09:59:18.966Z,50.19
2023-12-09T10:01:45.432Z,50.27
2023-12-09T10:04:12.420Z,51.08
2023-12-09T10:06:38.896Z,50.04
2023-12-09T10:09:05.411Z,49.99
2023-12-09T10:11:31.835Z,49.96
2023-12-09T10:13:58.209Z,49.84
2023-12-09T10:16:24.590Z,51.45
2023-12-09T10:18:51.114Z,52.10
2023-12-09T10:21:17.562Z,52.68
2023-12-09T10:23:44.994Z,52.30
2023-12-09T10:26:11.335Z,51.32
2023-12-09T10:28:37.680Z,50.89
2023-12-09T10:31:04.156Z,52.33
2023-12-09T10:33:33.581Z,53.42
2023-12-09T10:36:00.846Z,52.06
2023-12-09T10:38:27.444Z,51.91
2023-12-09T10:40:56.597Z,49.78
2023-12-09T10:43:22.944Z,50.48
2023-12-09T10:45:49.365Z,50.75
2023-12-09T10:48:16.321Z,50.20
2023-12-09T10:50:44.337Z,49.82
2023-12-09T10:53:10.689Z,48.83
2023-12-09T10:55:37.859Z,49.25
2023-12-09T10:58:05.381Z,49.35
2023-12-09T11:00:32.213Z,48.78
2023-12-09T11:02:58.742Z,50.24
2023-12-09T11:05:25.142Z,49.58
2023-12-09T11:07:51.527Z,49.70
2023-12-09T11:10:17.898Z,49.94
2023-12-09T11:12:46.144Z,49.16
2023-12-09T11:15:16.866Z,49.43
2023-12-09T11:17:45.315Z,49.21
2023-12-09T11:20:13.342Z,49.48
2023-12-09T11:22:41.202Z,51.25
2023-12-09T11:25:20.079Z,52.09
2023-12-09T11:27:48.016Z,50.12
2023-12-09T11:30:34.700Z,49.64
2023-12-09T11:33:01.821Z,49.86
2023-12-09T11:35:28.251Z,50.06
2023-12-09T11:37:55.721Z,49.01
2023-12-09T11:40:22.409Z,49.17
2023-12-09T11:42:49.720Z,48.82
2023-12-09T11:45:16.232Z,49.33
2023-12-09T11:50:13.210Z,49.80
2023-12-09T11:50:46.329Z,49.68
2023-12-09T11:53:12.685Z,49.74
2023-12-09T11:55:40.559Z,48.82
2023-12-09T11:58:14.531Z,50.40
2023-12-09T12:00:41.003Z,50.14
2023-12-09T12:03:07.487Z,49.04
2023-12-09T12:05:33.978Z,49.02
2023-12-09T12:08:00.480Z,48.72
2023-12-09T12:10:26.862Z,49.16
2023-12-09T12:12:53.197Z,49.34
2023-12-09T12:15:19.834Z,50.06
2023-12-09T12:17:46.348Z,50.69
2023-12-09T12:20:13.857Z,50.46
2023-12-09T12:22:41.657Z,50.92
2023-12-09T12:25:09.234Z,49.64
2023-12-09T12:27:36.640Z,49.89
2023-12-09T12:30:04.853Z,49.45
2023-12-09T12:32:34.176Z,48.92
2023-12-09T12:35:03.141Z,49.70
2023-12-09T12:37:29.509Z,50.26
2023-12-09T12:39:55.849Z,50.34
2023-12-09T12:42:22.239Z,49.71
2023-12-09T12:44:48.614Z,50.38
2023-12-09T12:47:15.054Z,50.36
2023-12-09T12:49:41.478Z,50.48
2023-12-09T12:52:07.913Z,51.21
2023-12-09T12:54:34.557Z,51.17
2023-12-09T12:57:00.938Z,51.16
2023-12-09T12:59:27.400Z,51.90
2023-12-09T13:01:54.021Z,51.48
2023-12-09T13:04:20.408Z,50.97
2023-12-09T13:06:46.927Z,51.00
2023-12-09T13:09:13.691Z,52.53
2023-12-09T13:11:40.078Z,52.36
2023-12-09T13:14:06.458Z,52.29
2023-12-09T13:16:32.889Z,52.24
2023-12-09T13:18:59.423Z,52.57
2023-12-09T13:21:26.134Z,53.02
2023-12-09T13:23:52.659Z,52.34
2023-12-09T13:26:19.042Z,52.55
2023-12-09T13:28:45.408Z,52.65
2023-12-09T13:31:12.055Z,53.87
2023-12-09T13:33:38.589Z,52.80
2023-12-09T13:36:05.285Z,53.25
2023-12-09T13:38:31.661Z,53.10
2023-12-09T13:40:58.007Z,53.34
2023-12-09T13:43:24.418Z,52.28
2023-12-09T13:45:50.752Z,51.77
2023-12-09T13:48:17.910Z,53.70
2023-12-09T13:50:44.929Z,56.37
2023-12-09T13:53:11.274Z,56.47
2023-12-09T13:55:37.638Z,55.37
2023-12-09T13:58:05.025Z,54.90
2023-12-09T14:00:31.559Z,56.48
2023-12-09T14:02:58.243Z,57.35
2023-12-09T14:05:24.681Z,57.17
2023-12-09T14:07:52.052Z,57.89
2023-12-09T14:10:18.801Z,58.20
2023-12-09T14:12:46.133Z,57.54
2023-12-09T14:15:15.654Z,60.03
2023-12-09T14:17:43.038Z,60.78
2023-12-09T14:20:11.749Z,60.48
2023-12-09T14:22:38.318Z,62.41
2023-12-09T14:25:05.149Z,61.97
2023-12-09T14:27:31.724Z,61.31
2023-12-09T14:29:58.154Z,59.76
2023-12-09T14:32:24.607Z,58.63
2023-12-09T14:34:51.179Z,56.18
2023-12-09T14:37:17.645Z,56.38
2023-12-09T14:39:44.348Z,55.76
2023-12-09T14:42:10.755Z,55.16
2023-12-09T14:44:37.162Z,54.15
2023-12-09T14:47:03.596Z,54.85
2023-12-09T14:49:30.093Z,55.10
2023-12-09T14:51:56.595Z,56.45
2023-12-09T14:54:23.608Z,55.41
2023-12-09T14:56:50.097Z,54.92
2023-12-09T14:59:17.486Z,55.09
2023-12-09T15:01:44.153Z,54.79
2023-12-09T15:04:10.679Z,54.66
2023-12-09T15:06:37.179Z,54.81
2023-12-09T15:09:04.134Z,54.79
2023-12-09T15:11:30.761Z,54.26
2023-12-09T15:13:57.218Z,53.90
2023-12-09T15:16:23.563Z,54.09
2023-12-09T15:18:50.064Z,54.19
2023-12-09T15:21:16.713Z,53.86
2023-12-09T15:23:43.170Z,53.94
2023-12-09T15:26:09.508Z,54.38
2023-12-09T15:28:35.856Z,54.48
2023-12-09T15:31:02.235Z,55.42
2023-12-09T15:33:28.818Z,54.65
2023-12-09T15:35:55.835Z,53.87
2023-12-09T15:38:22.251Z,54.11
2023-12-09T15:40:48.598Z,53.39
2023-12-09T15:43:15.005Z,53.42
2023-12-09T15:45:41.407Z,54.39
2023-12-09T15:48:08.826Z,54.80
2023-12-09T15:50:36.340Z,54.75
2023-12-09T15:53:02.737Z,53.92
2023-12-09T15:55:30.674Z,54.60
2023-12-09T15:57:59.138Z,56.96
2023-12-09T16:00:26.285Z,57.42
2023-12-09T16:02:53.599Z,57.94
2023-12-09T16:05:20.180Z,57.47
2023-12-09T16:07:46.615Z,56.04
2023-12-09T16:10:13.140Z,55.93
2023-12-09T16:12:40.790Z,55.45
2023-12-09T16:15:08.141Z,56.08
2023-12-09T16:17:37.383Z,56.65
2023-12-09T16:20:04.081Z,57.17
2023-12-09T16:22:30.882Z,56.73
2023-12-09T16:24:57.750Z,57.54
2023-12-09T16:27:24.801Z,56.61
2023-12-09T16:29:51.474Z,55.93
2023-12-09T16:32:17.822Z,56.97
2023-12-09T16:34:44.393Z,59.90
2023-12-09T16:37:10.977Z,58.71
2023-12-09T16:39:37.408Z,58.76
2023-12-09T16:42:04.091Z,58.48
2023-12-09T16:44:30.502Z,57.56
2023-12-09T16:46:56.852Z,57.15
2023-12-09T16:49:23.606Z,56.04
2023-12-09T16:51:50.080Z,55.58
2023-12-09T16:54:16.575Z,55.50
2023-12-09T16:56:42.965Z,55.95
2023-12-09T16:59:11.929Z,55.65
2023-12-09T17:01:39.513Z,57.17
2023-12-09T17:04:06.414Z,59.58
2023-12-09T17:06:33.315Z,59.69
2023-12-09T17:09:00.375Z,57.61
2023-12-09T17:11:27.042Z,57.64
2023-12-09T17:13:53.598Z,58.98
2023-12-09T17:16:19.925Z,62.59
2023-12-09T17:18:46.856Z,64.98
2023-12-09T17:21:13.260Z,65.84
2023-12-09T17:23:41.716Z,62.67
2023-12-09T17:26:08.445Z,62.44
2023-12-09T17:28:35.298Z,61.06
2023-12-09T17:31:02.184Z,59.11
2023-12-09T17:33:28.793Z,59.34
2023-12-09T17:35:55.270Z,58.59
2023-12-09T17:38:21.598Z,58.77
2023-12-09T17:40:47.964Z,58.35
2023-12-09T17:43:14.337Z,57.76
2023-12-09T17:45:41.473Z,63.01
2023-12-09T17:48:07.926Z,61.08
2023-12-09T17:50:34.337Z,59.91
2023-12-09T17:53:00.691Z,60.38
2023-12-09T17:55:27.028Z,59.33
2023-12-09T17:57:53.494Z,59.38
2023-12-09T18:00:19.899Z,59.06
2023-12-09T18:02:46.390Z,60.67
2023-12-09T18:05:12.933Z,60.72
2023-12-09T18:07:39.888Z,60.43
2023-12-09T18:10:06.566Z,59.71
2023-12-09T18:12:33.105Z,58.83
2023-12-09T18:14:59.469Z,58.16
2023-12-09T18:17:25.858Z,58.37
2023-12-09T18:19:52.370Z,57.02
2023-12-09T18:22:21.315Z,56.46
2023-12-09T18:24:48.753Z,56.81
2023-12-09T18:27:15.250Z,56.25
2023-12-09T18:29:42.733Z,55.71
2023-12-09T18:32:14.422Z,55.89
2023-12-09T18:34:40.832Z,55.57
2023-12-09T18:37:07.201Z,55.28
2023-12-09T18:39:34.380Z,56.41
2023-12-09T18:42:01.794Z,60.69
2023-12-09T18:44:28.196Z,63.43
2023-12-09T18:46:55.043Z,65.63
2023-12-09T18:49:21.529Z,62.41
2023-12-09T18:51:48.016Z,61.54
2023-12-09T18:54:14.447Z,60.01
2023-12-09T18:56:40.847Z,59.61
2023-12-09T18:59:08.658Z,59.26
2023-12-09T19:01:46.873Z,58.35
2023-12-09T19:04:13.398Z,58.10
2023-12-09T19:06:46.063Z,58.14
2023-12-09T19:09:20.155Z,58.70
2023-12-09T19:11:46.542Z,60.81
2023-12-09T19:14:12.903Z,64.08
2023-12-09T19:16:39.486Z,61.82
2023-12-09T19:19:05.928Z,60.83
2023-12-09T19:21:32.378Z,59.27
2023-12-09T19:23:58.805Z,59.61
2023-12-09T19:26:25.169Z,59.97
2023-12-09T19:28:51.505Z,62.13
2023-12-09T19:31:17.881Z,61.07
2023-12-09T19:33:44.354Z,59.63
2023-12-09T19:36:10.789Z,58.75
2023-12-09T19:38:37.158Z,57.44
2023-12-09T19:41:03.580Z,57.52
2023-12-09T19:43:29.947Z,57.03
2023-12-09T19:45:56.347Z,61.17
2023-12-09T19:48:22.813Z,65.52
2023-12-09T19:50:49.507Z,64.65
2023-12-09T19:53:15.900Z,62.28
2023-12-09T19:55:42.302Z,63.39
2023-12-09T19:58:09.349Z,66.08
2023-12-09T20:00:35.834Z,65.23
2023-12-09T20:03:02.388Z,66.85
2023-12-09T20:05:28.986Z,68.06
2023-12-09T20:07:55.424Z,63.38
2023-12-09T20:10:21.771Z,64.60
2023-12-09T20:12:49.121Z,62.16
2023-12-09T20:15:17.014Z,60.56
2023-12-09T20:17:43.522Z,59.13
2023-12-09T20:20:10.085Z,60.27
2023-12-09T20:22:36.591Z,61.66
2023-12-09T20:25:03.202Z,60.47
2023-12-09T20:27:29.680Z,60.78
2023-12-09T20:29:56.072Z,61.29
2023-12-09T20:32:22.510Z,60.73
2023-12-09T20:34:49.124Z,62.39
2023-12-09T20:37:15.518Z,62.33
2023-12-09T20:39:41.950Z,64.52
2023-12-09T20:42:08.334Z,63.63
2023-12-09T20:44:34.713Z,66.06
2023-12-09T20:47:01.123Z,64.83
2023-12-09T20:49:27.546Z,65.61
2023-12-09T20:51:54.036Z,65.30
2023-12-09T20:54:20.514Z,67.92
2023-12-09T20:56:46.906Z,67.87
2023-12-09T20:59:13.244Z,64.55
2023-12-09T21:01:46.381Z,62.64
2023-12-09T21:04:14.025Z,62.47
2023-12-09T21:06:40.706Z,64.14
2023-12-09T21:09:08.061Z,66.86
2023-12-09T21:11:37.699Z,65.17
2023-12-09T21:14:07.673Z,69.12
2023-12-09T21:16:34.273Z,68.34
2023-12-09T21:19:00.709Z,64.41
2023-12-09T21:21:27.238Z,62.93
2023-12-09T21:23:53.586Z,64.42
2023-12-09T21:26:20.062Z,66.35
2023-12-09T21:28:46.657Z,67.93
2023-12-09T21:31:13.235Z,68.12
2023-12-09T21:33:39.977Z,66.25
2023-12-09T21:36:15.878Z,65.10
2023-12-09T21:38:42.739Z,62.31
2023-12-09T21:41:09.442Z,62.75
2023-12-09T21:43:36.201Z,61.93
2023-12-09T21:46:02.637Z,61.20
2023-12-09T21:48:29.321Z,63.37
2023-12-09T21:50:55.817Z,62.61
2023-12-09T21:53:22.176Z,64.92
2023-12-09T21:55:48.540Z,64.56
2023-12-09T21:58:14.950Z,62.08
2023-12-09T22:00:41.375Z,61.89
2023-12-09T22:03:07.869Z,63.99
2023-12-09T22:05:34.582Z,61.57
2023-12-09T22:08:01.707Z,60.32
2023-12-09T22:10:28.112Z,60.93
2023-12-09T22:12:54.539Z,61.24
2023-12-09T22:15:21.091Z,60.68
2023-12-09T22:17:47.612Z,62.13
2023-12-09T22:20:14.073Z,62.66
2023-12-09T22:22:48.712Z,61.39
2023-12-09T22:25:20.534Z,60.59
2023-12-09T22:27:47.079Z,59.44
2023-12-09T22:30:13.696Z,59.48
2023-12-09T22:32:40.500Z,64.41
2023-12-09T22:35:06.952Z,68.73
2023-12-09T22:37:33.357Z,66.03
2023-12-09T22:39:59.830Z,64.83
2023-12-09T22:42:27.407Z,62.55
2023-12-09T22:44:54.456Z,62.20
2023-12-09T22:47:20.848Z,67.69
2023-12-09T22:49:47.285Z,73.41
2023-12-09T22:52:13.712Z,73.91
2023-12-09T22:54:40.078Z,68.66
2023-12-09T22:57:09.795Z,64.48
2023-12-09T22:59:40.800Z,62.87
2023-12-09T23:02:08.322Z,64.29
2023-12-09T23:04:34.672Z,61.89
2023-12-09T23:07:01.181Z,60.76
2023-12-09T23:09:27.702Z,62.52
2023-12-09T23:11:54.113Z,65.39
2023-12-09T23:14:20.482Z,63.14
2023-12-09T23:16:46.908Z,65.71
2023-12-09T23:19:13.567Z,67.26
2023-12-09T23:21:40.271Z,68.78
2023-12-09T23:24:06.657Z,67.08
2023-12-09T23:26:34.688Z,69.45
2023-12-09T23:29:01.492Z,66.33
2023-12-09T23:31:35.603Z,65.81
2023-12-09T23:34:05.921Z,62.65
2023-12-09T23:36:32.444Z,60.97
2023-12-09T23:38:58.802Z,61.65
2023-12-09T23:41:25.192Z,62.11
2023-12-09T23:43:51.625Z,62.00
2023-12-09T23:46:18.240Z,61.62
2023-12-09T23:48:44.748Z,62.41
2023-12-09T23:51:11.279Z,64.20
2023-12-09T23:53:37.660Z,63.07
2023-12-09T23:56:07.413Z,61.27
2023-12-09T23:58:33.788Z,59.99
